Time;durP1;ratioP1;P1;durP2;ratioP2;P2;SDS_P1;SDS_P2;PMS_P1;PMS_P2;Temp;Humidity;BMP_temperature;BMP_pressure;BME280_temperature;BME280_humidity;BME280_pressure;Samples;Min_cycle;Max_cycle;Signal;HPM_P1;HPM_P2
2023/10/10 00:00:27;;;;;;;25.77;15.18;;;17.70;95.40;;;;;;5055586;28;20029;-77
2023/10/10 00:02:53;;;;;;;25.15;15.73;;;17.60;95.40;;;;;;5055349;28;20025;-77
2023/10/10 00:05:30;;;;;;;24.23;15.07;;;17.60;95.40;;;;;;5039126;28;20025;-77
2023/10/10 00:07:59;;;;;;;26.35;15.27;;;17.60;95.50;;;;;;5073158;28;20021;-77
2023/10/10 00:10:27;;;;;;;26.30;14.75;;;17.50;95.60;;;;;;5055396;28;20032;-77
2023/10/10 00:12:53;;;;;;;25.17;15.10;;;17.50;95.60;;;;;;5039163;28;20047;-77
2023/10/10 00:15:24;;;;;;;28.63;15.20;;;17.60;95.60;;;;;;5039052;28;20037;-77
2023/10/10 00:17:50;;;;;;;23.35;14.93;;;17.60;95.60;;;;;;5055507;28;20033;-77
2023/10/10 00:20:22;;;;;;;24.92;15.43;;;17.60;95.50;;;;;;5055341;28;20394;-77
2023/10/10 00:22:48;;;;;;;26.80;15.70;;;17.50;95.40;;;;;;5055300;28;20036;-77
2023/10/10 00:25:24;;;;;;;25.88;15.45;;;17.50;95.60;;;;;;5038900;28;20017;-77
2023/10/10 00:27:55;;;;;;;25.95;15.60;;;17.50;95.60;;;;;;5055245;28;20025;-77
2023/10/10 00:30:22;;;;;;;27.52;15.30;;;17.50;95.60;;;;;;5072943;28;20044;-77
2023/10/10 00:32:50;;;;;;;27.00;14.95;;;17.40;95.60;;;;;;5056512;28;20021;-77
2023/10/10 00:35:17;;;;;;;28.13;16.65;;;17.50;95.70;;;;;;5042997;28;20021;-77
2023/10/10 00:37:44;;;;;;;26.30;15.18;;;17.50;95.60;;;;;;5059364;28;20024;-77
2023/10/10 00:40:15;;;;;;;26.65;15.80;;;17.50;95.70;;;;;;5059051;28;20083;-77
2023/10/10 00:42:41;;;;;;;26.20;15.15;;;17.50;95.60;;;;;;5059894;28;20036;-77
2023/10/10 00:45:14;;;;;;;25.38;14.93;;;17.50;95.60;;;;;;5059094;28;20033;-77
2023/10/10 00:47:47;;;;;;;25.77;15.07;;;17.50;95.60;;;;;;5043231;28;20086;-77
2023/10/10 00:50:19;;;;;;;26.98;15.05;;;17.60;95.50;;;;;;5059650;28;20105;-77
2023/10/10 00:52:56;;;;;;;23.85;15.50;;;17.60;95.40;;;;;;5076589;28;20029;-77
2023/10/10 00:55:24;;;;;;;26.65;15.45;;;17.60;95.40;;;;;;5058885;28;20391;-77
2023/10/10 00:57:55;;;;;;;23.77;14.90;;;17.60;95.40;;;;;;5076402;28;20021;-77
2023/10/10 01:00:30;;;;;;;26.10;14.85;;;17.60;95.30;;;;;;5059023;28;20032;-77
2023/10/10 01:03:06;;;;;;;24.25;15.57;;;17.50;95.30;;;;;;5058587;28;20101;-77
2023/10/10 01:05:42;;;;;;;22.92;14.55;;;17.50;95.30;;;;;;5058640;28;20025;-77
2023/10/10 01:08:08;;;;;;;24.67;15.10;;;17.50;95.30;;;;;;5043482;28;20075;-77
2023/10/10 01:10:43;;;;;;;22.55;14.70;;;17.40;95.30;;;;;;5058644;28;20029;-77
2023/10/10 01:13:10;;;;;;;24.17;15.45;;;17.40;95.30;;;;;;5058607;28;20100;-77
2023/10/10 01:15:37;;;;;;;26.75;14.93;;;17.40;95.30;;;;;;5042203;28;20029;-77
2023/10/10 01:18:03;;;;;;;29.35;15.88;;;17.40;95.00;;;;;;5076073;28;20025;-77
2023/10/10 01:20:45;;;;;;;27.38;16.20;;;17.40;95.10;;;;;;5058405;28;20033;-77
2023/10/10 01:23:15;;;;;;;25.65;15.45;;;17.30;95.30;;;;;;5043923;28;20488;-77
2023/10/10 01:25:43;;;;;;;26.13;16.05;;;17.20;95.30;;;;;;5058274;28;20024;-77
2023/10/10 01:28:53;;;;;;;30.83;15.32;;;17.20;95.60;;;;;;5058262;28;20047;-77
2023/10/10 01:31:10;;;;;;;28.10;16.70;;;17.10;95.60;;;;;;5062507;28;20025;-77
2023/10/10 01:33:36;;;;;;;25.23;15.18;;;17.00;95.80;;;;;;5075755;28;20028;-77
2023/10/10 01:36:19;;;;;;;29.05;16.67;;;16.90;95.90;;;;;;5058213;28;20407;-77
2023/10/10 01:38:59;;;;;;;28.10;16.25;;;16.90;96.10;;;;;;5058060;28;20029;-77
2023/10/10 01:41:31;;;;;;;23.27;14.73;;;16.80;96.30;;;;;;5057809;28;20049;-78
2023/10/10 01:44:08;;;;;;;;;;;16.90;96.40;;;;;;5058569;28;20025;-77
2023/10/10 01:46:35;;;;;;;27.88;16.60;;;16.90;96.20;;;;;;5057775;28;19912;-77
2023/10/10 01:49:06;;;;;;;25.42;15.75;;;16.80;96.20;;;;;;5041506;28;20052;-77
2023/10/10 01:51:37;;;;;;;24.33;15.60;;;16.70;96.30;;;;;;5057815;28;20033;-77
2023/10/10 01:54:14;;;;;;;22.70;15.15;;;16.60;96.60;;;;;;5058547;28;20264;-77
2023/10/10 01:56:40;;;;;;;24.02;15.07;;;16.70;96.80;;;;;;5059413;28;20029;-77
2023/10/10 01:59:09;;;;;;;21.73;14.98;;;16.70;96.60;;;;;;5057818;28;20036;-77
2023/10/10 02:01:35;;;;;;;35.88;14.32;;;16.80;96.50;;;;;;5058377;28;20032;-77
2023/10/10 02:04:06;;;;;;;25.27;13.95;;;16.80;95.90;;;;;;5057427;28;20021;-77
2023/10/10 02:06:34;;;;;;;22.33;14.52;;;16.70;96.10;;;;;;5041635;28;20024;-77
2023/10/10 02:09:26;;;;;;;24.92;13.85;;;16.60;96.30;;;;;;5075109;28;20029;-77
2023/10/10 02:11:55;;;;;;;21.52;14.63;;;16.50;96.50;;;;;;5075093;28;20051;-77
2023/10/10 02:14:25;;;;;;;25.17;15.77;;;16.40;96.70;;;;;;5074941;28;20029;-77
2023/10/10 02:16:54;;;;;;;27.70;16.88;;;16.40;96.70;;;;;;5041237;28;20093;-77
2023/10/10 02:19:40;;;;;;;29.15;16.98;;;16.30;96.90;;;;;;5057196;28;20063;-77
2023/10/10 02:22:23;;;;;;;30.17;17.40;;;16.40;97.10;;;;;;5042954;28;20059;-77
2023/10/10 02:27:53;;;;;;;35.47;17.70;;;16.40;96.90;;;;;;5074889;28;20071;-77
2023/10/10 02:30:34;;;;;;;31.88;16.20;;;16.30;96.90;;;;;;5043069;28;20021;-77
2023/10/10 02:33:03;;;;;;;46.67;17.88;;;16.30;97.00;;;;;;5074696;28;20021;-77
2023/10/10 02:35:34;;;;;;;27.48;16.85;;;16.20;97.20;;;;;;5074497;28;20112;-76
2023/10/10 02:38:04;;;;;;;32.17;17.77;;;16.20;97.20;;;;;;5041100;28;20048;-77
2023/10/10 02:40:42;;;;;;;30.15;17.33;;;16.10;97.30;;;;;;5040647;28;20033;-77
2023/10/10 02:43:33;;;;;;;29.95;17.52;;;16.20;97.50;;;;;;5058934;28;20047;-78
2023/10/10 02:45:59;;;;;;;27.33;16.02;;;16.30;97.50;;;;;;5060595;28;20049;-77
2023/10/10 02:48:27;;;;;;;27.38;15.40;;;16.40;97.30;;;;;;5056739;28;20029;-77
2023/10/10 02:50:53;;;;;;;29.50;17.20;;;16.40;97.10;;;;;;5040472;28;20025;-77
2023/10/10 02:53:19;;;;;;;29.60;17.33;;;16.40;96.90;;;;;;5074195;28;20063;-77
2023/10/10 02:55:51;;;;;;;25.58;16.42;;;16.40;96.70;;;;;;5073635;28;20020;-77
2023/10/10 02:58:21;;;;;;;29.88;16.77;;;16.30;96.70;;;;;;5073835;28;20036;-77
2023/10/10 03:00:51;;;;;;;31.30;18.20;;;16.20;96.90;;;;;;5056972;28;20025;-77
2023/10/10 03:03:20;;;;;;;35.70;18.58;;;16.20;97.20;;;;;;5056323;28;20082;-77
2023/10/10 03:05:58;;;;;;;38.47;19.17;;;16.20;97.60;;;;;;5056989;28;20017;-77
2023/10/10 03:08:34;;;;;;;34.80;19.55;;;16.20;97.30;;;;;;5056329;28;20025;-77
2023/10/10 03:11:01;;;;;;;33.03;19.58;;;16.20;97.40;;;;;;5058042;28;20056;-78
2023/10/10 03:13:30;;;;;;;34.15;19.30;;;16.30;97.40;;;;;;5056247;28;20021;-77
2023/10/10 03:16:11;;;;;;;30.83;18.65;;;16.40;97.40;;;;;;5073843;28;20507;-77
2023/10/10 03:18:37;;;;;;;31.02;17.67;;;16.40;97.20;;;;;;5073824;28;20032;-77
2023/10/10 03:23:53;;;;;;;31.05;17.55;;;16.40;96.70;;;;;;5057412;28;20029;-77
2023/10/10 03:26:32;;;;;;;28.87;17.37;;;16.40;96.70;;;;;;5056063;28;20131;-77
2023/10/10 03:29:04;;;;;;;32.05;17.67;;;16.40;96.70;;;;;;5041167;28;20029;-78
2023/10/10 03:31:42;;;;;;;;;;;16.40;96.70;;;;;;5040753;28;20028;-77
2023/10/10 03:36:44;;;;;;;30.25;16.88;;;16.40;96.70;;;;;;5056366;28;20033;-77
2023/10/10 03:39:26;;;;;;;28.35;17.02;;;16.50;96.50;;;;;;5040413;28;20032;-77
2023/10/10 05:23:30;;;;;;;28.73;16.88;;;15.80;95.60;;;;;;5076030;28;20105;-78
2023/10/10 05:25:55;;;;;;;31.30;17.58;;;15.80;95.60;;;;;;5042624;28;20047;-77
2023/10/10 05:28:22;;;;;;;28.80;17.52;;;15.80;95.60;;;;;;5075975;28;20029;-77
2023/10/10 05:30:47;;;;;;;32.90;17.48;;;15.80;95.70;;;;;;5058142;28;20039;-77
2023/10/10 05:33:14;;;;;;;31.77;18.50;;;15.80;95.80;;;;;;5041759;28;20033;-77
2023/10/10 05:35:47;;;;;;;31.33;17.70;;;15.80;95.60;;;;;;5041517;28;20119;-77
2023/10/10 05:38:15;;;;;;;29.20;17.73;;;15.80;95.70;;;;;;5058047;28;20032;-78
2023/10/10 05:40:43;;;;;;;31.23;17.80;;;15.80;95.80;;;;;;5057758;28;20055;-78
2023/10/10 05:43:14;;;;;;;32.00;17.65;;;15.80;95.60;;;;;;5058312;28;20021;-77
2023/10/10 05:45:40;;;;;;;31.27;17.67;;;15.80;95.60;;;;;;5075634;28;20021;-77
2023/10/10 05:48:06;;;;;;;29.70;17.17;;;15.80;95.50;;;;;;5057770;28;20480;-77
2023/10/10 05:50:35;;;;;;;27.90;17.10;;;15.80;95.40;;;;;;5057963;28;20033;-77
2023/10/10 05:53:03;;;;;;;28.25;16.83;;;15.80;95.50;;;;;;5057895;28;20025;-77
2023/10/10 05:55:31;;;;;;;30.48;18.38;;;15.80;95.60;;;;;;5041259;28;20033;-77
2023/10/10 05:57:57;;;;;;;28.75;17.20;;;15.80;95.40;;;;;;5041357;28;20492;-77
2023/10/10 06:00:26;;;;;;;30.30;16.42;;;15.60;95.60;;;;;;5041199;28;20029;-77
2023/10/10 06:02:52;;;;;;;29.48;17.67;;;15.60;95.80;;;;;;5057400;28;20099;-77
2023/10/10 06:05:18;;;;;;;30.55;16.75;;;15.50;95.80;;;;;;5057653;28;20025;-77
2023/10/10 06:07:44;;;;;;;31.58;16.98;;;15.40;95.90;;;;;;5075192;28;20074;-77
2023/10/10 06:10:17;;;;;;;30.90;18.95;;;15.30;96.10;;;;;;5057573;28;20021;-77
2023/10/10 06:12:43;;;;;;;;;;;15.30;96.20;;;;;;5075497;28;20400;-77
2023/10/10 06:15:09;;;;;;;29.33;16.85;;;15.10;96.20;;;;;;5075032;28;19908;-77
2023/10/10 06:17:34;;;;;;;31.08;18.30;;;15.00;96.80;;;;;;5040681;28;20044;-76
2023/10/10 06:20:01;;;;;;;34.05;18.23;;;15.00;96.90;;;;;;5040776;28;20020;-77
2023/10/10 06:22:29;;;;;;;30.63;17.45;;;14.90;97.10;;;;;;5057180;28;20036;-77
2023/10/10 06:24:58;;;;;;;26.95;15.45;;;14.90;97.40;;;;;;5074852;28;20036;-77
2023/10/10 06:27:28;;;;;;;27.90;16.90;;;14.90;97.50;;;;;;5074738;28;20027;-77
2023/10/10 06:29:58;;;;;;;29.85;15.95;;;14.90;97.60;;;;;;5041347;28;20021;-77
2023/10/10 06:32:30;;;;;;;27.13;16.08;;;14.90;97.50;;;;;;5040868;28;20057;-77
2023/10/10 06:37:45;;;;;;;28.27;15.90;;;15.00;97.50;;;;;;5074614;28;20029;-77
2023/10/10 06:40:11;;;;;;;27.33;15.60;;;15.00;97.50;;;;;;5057114;28;20037;-77
2023/10/10 06:42:37;;;;;;;28.70;15.65;;;15.00;97.60;;;;;;5074245;28;20045;-77
2023/10/10 06:45:11;;;;;;;29.40;15.38;;;15.00;97.50;;;;;;5040245;28;20025;-77
2023/10/10 06:47:43;;;;;;;28.58;15.57;;;15.00;97.60;;;;;;5056720;28;20029;-77
2023/10/10 06:50:12;;;;;;;26.85;15.00;;;15.00;97.70;;;;;;5056721;28;20017;-77
2023/10/10 06:52:39;;;;;;;28.15;15.02;;;15.10;97.60;;;;;;5056619;28;20023;-77
2023/10/10 06:55:12;;;;;;;24.45;13.55;;;15.00;97.70;;;;;;5056503;28;20029;-77
2023/10/10 06:57:57;;;;;;;24.30;14.45;;;15.00;97.70;;;;;;5057210;28;20021;-77
2023/10/10 07:00:44;;;;;;;31.02;15.50;;;15.10;98.10;;;;;;5074211;28;20560;-77
2023/10/10 07:03:11;;;;;;;26.10;16.13;;;15.10;97.70;;;;;;5056468;28;20088;-77
2023/10/10 07:05:39;;;;;;;24.88;13.82;;;15.10;97.70;;;;;;5056616;28;20553;-77
2023/10/10 07:08:24;;;;;;;25.25;14.57;;;15.10;97.60;;;;;;5056838;28;20013;-77
2023/10/10 07:10:53;;;;;;;26.63;14.38;;;15.10;97.60;;;;;;5042505;28;20045;-78
2023/10/10 07:13:21;;;;;;;26.77;15.88;;;15.10;97.50;;;;;;5073908;28;20032;-77
2023/10/10 07:15:53;;;;;;;25.08;14.38;;;15.20;97.40;;;;;;5056164;28;20026;-77
2023/10/10 07:18:22;;;;;;;24.48;14.80;;;15.20;97.40;;;;;;5057226;28;20088;-77
2023/10/10 07:21:04;;;;;;;25.50;14.73;;;15.20;97.50;;;;;;5056035;28;20028;-77
2023/10/10 07:23:41;;;;;;;25.63;13.52;;;15.20;97.50;;;;;;5056101;28;20047;-77
2023/10/10 07:26:25;;;;;;;26.60;14.85;;;15.20;97.50;;;;;;5056128;28;20032;-77
2023/10/10 07:28:54;;;;;;;27.38;14.95;;;15.20;97.50;;;;;;5056082;28;20017;-77
2023/10/10 07:31:22;;;;;;;24.52;13.52;;;15.30;97.60;;;;;;5039890;28;20028;-77
2023/10/10 07:34:04;;;;;;;23.45;13.88;;;15.30;97.50;;;;;;5055764;28;20033;-77
2023/10/10 07:36:33;;;;;;;24.70;13.57;;;15.30;97.70;;;;;;5041561;28;20029;-77
2023/10/10 07:41:46;;;;;;;25.23;13.88;;;15.40;97.70;;;;;;5058231;28;20061;-78
2023/10/10 07:44:16;;;;;;;25.50;14.95;;;15.40;97.60;;;;;;5072939;28;20029;-78
2023/10/10 07:47:07;;;;;;;23.00;14.30;;;15.50;97.70;;;;;;5055682;28;20013;-77
2023/10/10 07:49:27;;;;;;;27.45;15.02;;;15.50;97.60;;;;;;5058683;28;20104;-77
2023/10/10 07:51:53;;;;;;;27.17;15.48;;;15.60;97.60;;;;;;5039157;28;20018;-77
2023/10/10 07:54:33;;;;;;;24.73;14.35;;;15.60;97.60;;;;;;5039236;28;20071;-77
2023/10/10 07:57:04;;;;;;;26.58;15.73;;;15.70;97.50;;;;;;5041112;28;20040;-77
2023/10/10 07:59:36;;;;;;;27.73;15.13;;;15.70;97.50;;;;;;5039919;28;20083;-77
2023/10/10 08:02:19;;;;;;;26.58;14.77;;;15.80;97.30;;;;;;5055486;28;20040;-77
2023/10/10 08:04:49;;;;;;;25.20;14.30;;;15.80;97.40;;;;;;5041533;28;20028;-77
2023/10/10 08:07:18;;;;;;;24.27;14.38;;;15.80;97.40;;;;;;5056229;28;20033;-77
2023/10/10 08:09:46;;;;;;;26.48;14.63;;;15.90;97.40;;;;;;5073063;28;20087;-77
2023/10/10 08:12:15;;;;;;;28.60;16.95;;;15.90;97.50;;;;;;5073069;28;20051;-77
2023/10/10 08:14:43;;;;;;;29.23;16.08;;;16.00;97.70;;;;;;5055319;28;20419;-77
2023/10/10 08:17:25;;;;;;;26.23;14.82;;;16.10;97.30;;;;;;5055474;28;20365;-77
2023/10/10 08:19:51;;;;;;;;;;;16.10;97.30;;;;;;5041656;28;20029;-77
2023/10/10 08:22:27;;;;;;;35.35;16.48;;;16.10;97.50;;;;;;5073003;28;19996;-77
2023/10/10 08:24:52;;;;;;;26.38;15.05;;;16.20;97.40;;;;;;5055347;28;20097;-77
2023/10/10 08:27:18;;;;;;;25.30;13.93;;;16.20;97.50;;;;;;5072920;28;20029;-77
2023/10/10 08:29:45;;;;;;;31.55;17.00;;;16.20;97.50;;;;;;5038902;28;20025;-77
2023/10/10 08:32:12;;;;;;;26.52;15.40;;;16.30;97.50;;;;;;5055260;28;20028;-77
2023/10/10 08:34:42;;;;;;;26.52;15.45;;;16.40;97.40;;;;;;5072840;28;20115;-77
2023/10/10 08:37:09;;;;;;;29.05;16.17;;;16.40;97.30;;;;;;5055237;28;20475;-77
2023/10/10 08:39:35;;;;;;;28.00;15.95;;;16.40;97.20;;;;;;5055126;28;20029;-78
2023/10/10 08:42:14;;;;;;;27.15;15.77;;;16.50;97.00;;;;;;5055123;28;20075;-78
2023/10/10 08:44:40;;;;;;;30.15;16.75;;;16.60;97.00;;;;;;5039408;28;20063;-77
2023/10/10 08:47:09;;;;;;;27.15;15.75;;;16.60;97.10;;;;;;5038932;28;20033;-77
2023/10/10 08:49:35;;;;;;;29.38;15.68;;;16.60;97.00;;;;;;5055378;28;20021;-77
2023/10/10 08:52:03;;;;;;;25.27;15.35;;;16.70;96.90;;;;;;5055238;28;20076;-77
2023/10/10 08:54:29;;;;;;;28.55;17.30;;;16.80;96.80;;;;;;5040857;28;20021;-78
2023/10/10 08:57:10;;;;;;;26.80;15.73;;;16.90;96.70;;;;;;5058815;28;20028;-77
2023/10/10 08:59:42;;;;;;;25.45;14.55;;;16.90;96.60;;;;;;5076533;28;20025;-78
2023/10/10 09:02:09;;;;;;;26.20;15.35;;;17.00;96.40;;;;;;5043089;28;20511;-77
2023/10/10 09:04:34;;;;;;;23.08;13.60;;;17.00;96.10;;;;;;5058695;28;20092;-77
2023/10/10 09:07:08;;;;;;;25.85;14.45;;;17.00;96.20;;;;;;5058656;28;20022;-77
2023/10/10 09:09:40;;;;;;;25.42;14.70;;;17.00;96.30;;;;;;5060049;28;20022;-77
2023/10/10 09:12:14;;;;;;;27.95;14.68;;;17.10;96.10;;;;;;5059803;28;20029;-77
2023/10/10 09:14:50;;;;;;;22.40;12.95;;;17.00;95.80;;;;;;5042948;28;20040;-77
2023/10/10 09:17:35;;;;;;;20.77;13.05;;;17.10;95.90;;;;;;5042868;28;20025;-77
2023/10/10 09:20:45;;;;;;;23.02;12.93;;;17.20;95.90;;;;;;5076118;28;20060;-78
2023/10/10 09:23:04;;;;;;;21.30;13.98;;;17.20;96.00;;;;;;5048605;28;20037;-78
2023/10/10 09:25:48;;;;;;;22.13;13.32;;;17.20;96.10;;;;;;5058353;28;20040;-77
2023/10/10 09:28:15;;;;;;;22.08;12.77;;;17.30;96.30;;;;;;5058301;28;20013;-77
2023/10/10 09:33:27;;;;;;;22.05;12.85;;;17.50;96.00;;;;;;5075877;28;20120;-77
2023/10/10 09:36:09;;;;;;;20.48;11.57;;;17.60;95.90;;;;;;5043894;28;20092;-77
2023/10/10 09:38:46;;;;;;;20.73;11.50;;;17.60;95.50;;;;;;5059228;28;20465;-77
2023/10/10 09:57:44;;;;;;;17.20;10.93;;;18.20;94.20;;;;;;5075526;28;20024;-76
2023/10/10 10:00:13;;;;;;;20.35;10.68;;;18.30;93.80;;;;;;5057647;28;20460;-76
2023/10/10 10:02:49;;;;;;;21.17;11.05;;;18.30;94.30;;;;;;5058146;28;20041;-77
2023/10/10 10:05:20;;;;;;;17.75;10.18;;;18.50;94.30;;;;;;5074757;28;20032;-76
2023/10/10 10:08:13;;;;;;;17.75;10.63;;;18.60;93.80;;;;;;5057526;28;20024;-77
2023/10/10 10:10:54;;;;;;;20.10;9.38;;;18.70;92.90;;;;;;5075283;28;20013;-76
2023/10/10 10:13:48;;;;;;;18.80;11.00;;;18.70;92.90;;;;;;5057564;28;20050;-76
2023/10/10 10:16:35;;;;;;;19.02;10.45;;;18.80;92.60;;;;;;5057469;28;20029;-77
2023/10/10 10:19:14;;;;;;;14.80;9.00;;;18.90;92.60;;;;;;5057390;28;20435;-76
2023/10/10 10:22:07;;;;;;;19.90;10.27;;;18.80;91.70;;;;;;5057413;28;20071;-76
2023/10/10 10:24:52;;;;;;;17.75;9.23;;;18.80;92.00;;;;;;5074979;28;20032;-76
2023/10/10 10:27:35;;;;;;;18.50;9.98;;;18.90;92.20;;;;;;5057189;28;20021;-76
2023/10/10 10:32:47;;;;;;;17.98;9.32;;;19.10;92.00;;;;;;5074815;28;20040;-77
2023/10/10 10:35:23;;;;;;;17.45;9.48;;;19.30;91.90;;;;;;5074630;28;20076;-77
2023/10/10 10:37:58;;;;;;;16.20;8.43;;;19.30;90.90;;;;;;5056953;28;20040;-76
2023/10/10 10:43:05;;;;;;;18.65;10.05;;;19.60;91.30;;;;;;5074387;28;20067;-77
2023/10/10 10:45:37;;;;;;;17.13;8.85;;;19.70;90.90;;;;;;5074414;28;20033;-76
2023/10/10 10:48:09;;;;;;;19.45;9.55;;;19.80;91.10;;;;;;5074573;28;20046;-77
2023/10/10 10:50:43;;;;;;;18.17;8.65;;;20.00;91.00;;;;;;5074478;28;20021;-76
2023/10/10 10:53:30;;;;;;;19.77;9.23;;;20.10;90.60;;;;;;5073643;28;20097;-77
2023/10/10 11:01:42;;;;;;;15.93;7.95;;;20.30;89.00;;;;;;5043301;28;20037;-77
2023/10/10 11:04:14;;;;;;;14.10;7.70;;;20.40;89.40;;;;;;5074084;28;20055;-77
2023/10/10 11:06:52;;;;;;;;;;;20.50;90.10;;;;;;5056855;28;20030;-76
2023/10/10 11:09:28;;;;;;;17.63;7.22;;;20.60;86.60;;;;;;5056396;28;19904;-76
2023/10/10 11:12:08;;;;;;;15.30;7.72;;;20.50;86.00;;;;;;5056432;28;20025;-76
2023/10/10 11:14:44;;;;;;;16.25;8.07;;;20.60;88.00;;;;;;5056322;28;20071;-76
2023/10/10 11:17:18;;;;;;;12.55;7.25;;;20.60;87.00;;;;;;5055369;28;20550;-76
2023/10/10 11:19:53;;;;;;;15.55;8.20;;;20.70;86.40;;;;;;5056193;28;20024;-76
2023/10/10 11:25:26;;;;;;;15.60;8.35;;;20.90;85.80;;;;;;5029374;28;20029;-76
2023/10/10 11:27:54;;;;;;;11.55;6.97;;;20.90;86.80;;;;;;5056169;28;20021;-77
2023/10/10 11:30:25;;;;;;;14.23;7.30;;;21.10;85.80;;;;;;5073639;28;20034;-76
2023/10/10 11:33:16;;;;;;;18.37;7.17;;;21.20;85.90;;;;;;5073672;28;20036;-77
2023/10/10 11:35:37;;;;;;;15.75;7.28;;;21.30;85.60;;;;;;5073293;28;20025;-77
2023/10/10 11:38:16;;;;;;;13.85;7.47;;;21.30;85.10;;;;;;5039516;28;20036;-77
2023/10/10 11:40:43;;;;;;;13.48;7.00;;;21.40;86.40;;;;;;5041255;28;20021;-76
2023/10/10 11:43:13;;;;;;;12.85;7.40;;;21.50;85.20;;;;;;5039352;28;20045;-76
2023/10/10 11:45:39;;;;;;;13.90;7.30;;;21.50;85.90;;;;;;5055795;28;20029;-76
2023/10/10 11:48:12;;;;;;;12.70;6.90;;;21.60;86.20;;;;;;5073358;28;20025;-76
2023/10/10 11:50:51;;;;;;;15.98;7.47;;;21.70;84.90;;;;;;5072633;28;20047;-76
2023/10/10 11:53:23;;;;;;;11.85;6.45;;;21.70;82.00;;;;;;5072478;28;20033;-76
2023/10/10 11:55:49;;;;;;;12.20;6.00;;;21.80;82.90;;;;;;5072514;28;20035;-76
2023/10/10 11:58:18;;;;;;;12.70;5.45;;;21.70;81.80;;;;;;5055596;28;20276;-76
2023/10/10 12:00:45;;;;;;;17.08;6.07;;;21.80;82.40;;;;;;5055569;28;20036;-76
2023/10/10 12:03:32;;;;;;;12.10;6.10;;;21.80;81.30;;;;;;5055427;28;20055;-77
2023/10/10 12:05:59;;;;;;;11.88;6.30;;;21.90;81.40;;;;;;5055672;28;20071;-76
2023/10/10 12:08:25;;;;;;;10.60;6.00;;;22.10;82.60;;;;;;5039296;28;20039;-76
2023/10/10 12:10:52;;;;;;;11.90;6.88;;;22.20;82.70;;;;;;5055640;28;20120;-76
2023/10/10 12:13:25;;;;;;;11.55;6.20;;;22.30;81.70;;;;;;5055396;28;20032;-76
2023/10/10 12:15:51;;;;;;;10.95;5.95;;;22.30;79.60;;;;;;5055443;28;20025;-76
2023/10/10 12:18:17;;;;;;;9.88;5.70;;;22.20;78.70;;;;;;5055525;28;20032;-76
2023/10/10 12:20:44;;;;;;;10.43;5.10;;;22.20;78.30;;;;;;5072144;28;20033;-76
2023/10/10 12:23:13;;;;;;;10.43;5.35;;;22.30;78.70;;;;;;5072042;28;20035;-76
2023/10/10 12:25:41;;;;;;;12.45;5.55;;;22.40;78.80;;;;;;5055396;28;20083;-76
2023/10/10 12:28:09;;;;;;;12.75;5.30;;;22.50;79.00;;;;;;5055414;28;20032;-76
2023/10/10 12:30:40;;;;;;;10.90;5.32;;;22.60;79.10;;;;;;5059314;28;20025;-76
2023/10/10 12:33:07;;;;;;;10.00;5.30;;;22.60;78.80;;;;;;5059329;28;20021;-76
2023/10/10 12:35:32;;;;;;;9.35;4.78;;;22.70;78.50;;;;;;5059280;28;20029;-77
2023/10/10 12:38:01;;;;;;;8.77;4.28;;;22.70;77.60;;;;;;5076049;28;20040;-76
2023/10/10 12:40:29;;;;;;;10.02;4.68;;;22.80;77.30;;;;;;5076046;28;20081;-77
2023/10/10 12:42:55;;;;;;;11.52;6.00;;;22.90;74.90;;;;;;5058723;28;20148;-76
2023/10/10 12:45:21;;;;;;;8.75;4.10;;;22.90;76.00;;;;;;5076769;28;20025;-76
2023/10/10 12:47:48;;;;;;;11.32;5.07;;;23.00;77.00;;;;;;5075847;28;20036;-77
2023/10/10 12:50:14;;;;;;;9.80;4.45;;;23.00;75.80;;;;;;5075817;28;20022;-76
2023/10/10 12:52:45;;;;;;;9.05;4.40;;;23.00;74.80;;;;;;5042481;28;20021;-77
2023/10/10 12:55:11;;;;;;;9.73;3.80;;;23.10;73.60;;;;;;5076645;28;20024;-77
2023/10/10 12:57:38;;;;;;;7.32;4.05;;;23.10;74.20;;;;;;5058873;28;20028;-76
2023/10/10 13:00:23;;;;;;;8.95;4.43;;;23.20;74.00;;;;;;5058838;28;20088;-76
2023/10/10 13:02:50;;;;;;;9.20;4.25;;;23.30;74.10;;;;;;5058696;28;20053;-76
2023/10/10 13:05:16;;;;;;;12.07;5.60;;;23.40;75.30;;;;;;5075551;28;20029;-77
2023/10/10 13:07:43;;;;;;;7.40;4.38;;;23.40;74.60;;;;;;5076502;28;20009;-76
2023/10/10 13:10:13;;;;;;;10.73;4.45;;;23.30;73.90;;;;;;5058705;28;20085;-77
2023/10/10 13:12:39;;;;;;;8.70;4.35;;;23.30;74.70;;;;;;5075379;28;20025;-76
2023/10/10 13:15:17;;;;;;;7.95;4.30;;;23.40;72.80;;;;;;5058497;28;20032;-77
2023/10/10 13:17:50;;;;;;;10.75;5.07;;;23.40;73.10;;;;;;5058496;28;20025;-77
2023/10/10 13:20:17;;;;;;;7.80;4.20;;;23.40;73.60;;;;;;5075319;28;20025;-77
2023/10/10 13:22:43;;;;;;;9.27;5.03;;;23.50;74.40;;;;;;5058284;28;20025;-76
2023/10/10 13:25:10;;;;;;;8.52;4.40;;;23.50;75.10;;;;;;5075137;28;20041;-77
2023/10/10 13:27:36;;;;;;;8.52;4.68;;;23.70;74.40;;;;;;5058322;28;20093;-76
2023/10/10 13:30:03;;;;;;;8.43;4.13;;;23.70;74.00;;;;;;5058400;28;20081;-76
2023/10/10 13:32:28;;;;;;;9.18;4.07;;;23.80;72.60;;;;;;5058266;28;20100;-76
2023/10/10 13:34:54;;;;;;;7.78;4.43;;;24.00;72.00;;;;;;5075749;28;20026;-76
2023/10/10 13:37:22;;;;;;;10.25;4.65;;;24.00;72.80;;;;;;5074860;28;20033;-76
2023/10/10 13:39:47;;;;;;;7.45;4.05;;;23.90;71.40;;;;;;5057630;28;20071;-76
2023/10/10 13:42:17;;;;;;;9.98;4.43;;;23.70;72.00;;;;;;5057390;28;20041;-76
2023/10/10 13:44:43;;;;;;;7.78;4.25;;;23.50;72.70;;;;;;5057944;28;20040;-76
2023/10/10 13:47:10;;;;;;;13.60;4.20;;;23.40;72.20;;;;;;5075621;28;20075;-76
2023/10/10 13:49:44;;;;;;;11.82;4.63;;;23.30;72.80;;;;;;5057988;28;20025;-77
2023/10/10 13:52:11;;;;;;;8.75;3.97;;;23.30;73.50;;;;;;5042657;28;20040;-76
2023/10/10 13:54:37;;;;;;;8.45;3.90;;;23.30;74.00;;;;;;5057839;28;20026;-76
2023/10/10 13:57:03;;;;;;;13.73;3.75;;;23.30;74.10;;;;;;5057747;28;20039;-76
2023/10/10 13:59:28;;;;;;;8.75;4.22;;;23.40;74.10;;;;;;5057838;28;20044;-76
2023/10/10 14:01:55;;;;;;;7.68;3.83;;;23.50;72.40;;;;;;5057795;28;20036;-76
2023/10/10 14:04:26;;;;;;;8.73;4.07;;;23.70;72.10;;;;;;5057580;28;20048;-77
2023/10/10 14:06:53;;;;;;;8.35;4.50;;;23.90;71.30;;;;;;5075468;28;20028;-77
2023/10/10 14:09:25;;;;;;;7.88;4.30;;;24.00;71.50;;;;;;5075185;28;20021;-77
2023/10/10 14:11:56;;;;;;;8.85;4.32;;;24.50;70.20;;;;;;5075232;28;20529;-77
2023/10/10 14:14:22;;;;;;;11.68;4.38;;;25.10;70.00;;;;;;5057536;28;20044;-76
2023/10/10 14:16:48;;;;;;;11.57;5.15;;;25.50;67.60;;;;;;5057418;28;20033;-77
2023/10/10 14:19:13;;;;;;;9.27;4.22;;;25.90;67.10;;;;;;5057343;28;20052;-77
2023/10/10 14:21:39;;;;;;;8.52;4.43;;;25.90;66.90;;;;;;5057431;28;20029;-77
2023/10/10 14:24:07;;;;;;;8.05;4.13;;;26.10;67.00;;;;;;5057108;28;20052;-77
2023/10/10 14:26:36;;;;;;;11.88;4.30;;;26.30;65.80;;;;;;5074900;28;20013;-77
2023/10/10 14:29:06;;;;;;;10.95;4.15;;;26.60;65.30;;;;;;5073970;28;20025;-77
2023/10/10 14:31:34;;;;;;;8.95;4.13;;;26.20;65.20;;;;;;5057851;28;20017;-76
2023/10/10 14:34:00;;;;;;;9.68;3.95;;;25.90;65.20;;;;;;5057095;28;20029;-77
2023/10/10 14:36:30;;;;;;;9.07;4.28;;;25.60;66.50;;;;;;5073725;28;20082;-77
2023/10/10 14:38:57;;;;;;;8.70;3.90;;;25.40;65.30;;;;;;5074587;28;20035;-77
2023/10/10 14:41:30;;;;;;;9.73;3.45;;;25.20;65.60;;;;;;5056834;28;20029;-77
2023/10/10 14:44:00;;;;;;;6.47;3.63;;;25.00;65.90;;;;;;5073655;28;20037;-77
2023/10/10 14:46:33;;;;;;;7.25;3.28;;;24.90;66.20;;;;;;5040893;28;20045;-77
2023/10/10 14:49:05;;;;;;;8.75;3.40;;;24.80;65.90;;;;;;5073627;28;20045;-77
2023/10/10 14:51:34;;;;;;;8.83;3.93;;;24.60;66.50;;;;;;5056666;28;20036;-77
2023/10/10 14:54:08;;;;;;;8.85;3.55;;;24.50;68.40;;;;;;5073483;28;20326;-77
2023/10/10 14:56:35;;;;;;;5.20;3.05;;;24.20;67.20;;;;;;5073468;28;20032;-77
2023/10/10 14:59:06;;;;;;;9.73;3.70;;;24.10;68.00;;;;;;5056666;28;20037;-77
2023/10/10 15:01:34;;;;;;;8.45;3.45;;;23.90;68.50;;;;;;5074237;28;20053;-76
2023/10/10 15:04:09;;;;;;;9.90;3.65;;;23.80;68.40;;;;;;5056350;28;20119;-76
2023/10/10 15:06:35;;;;;;;10.80;3.72;;;23.70;69.10;;;;;;5056508;28;20025;-77
2023/10/10 15:09:01;;;;;;;8.30;3.45;;;23.50;69.40;;;;;;5056442;28;20024;-77
2023/10/10 15:11:28;;;;;;;8.20;3.92;;;23.40;69.60;;;;;;5056345;28;20021;-76
2023/10/10 15:13:58;;;;;;;7.15;3.42;;;23.30;71.60;;;;;;5056409;28;20029;-77
2023/10/10 15:16:27;;;;;;;8.15;3.60;;;23.30;71.10;;;;;;5056416;28;20024;-77
2023/10/10 15:18:53;;;;;;;6.47;3.60;;;23.30;71.70;;;;;;5056344;28;20480;-77
2023/10/10 15:21:22;;;;;;;9.68;4.00;;;23.30;71.70;;;;;;5072943;28;20100;-76